Pronóstico
Mapa Interactivo
Aviación
Climatología
Hidrometeorología
Agrometeorología
Estaciones Automáticas
Transparencia
OMM WMO
Portada
Institución
Noticias
Imágenes
Tsunami
Historial
Boletines y Alertas
Contactos
Buscar Contenidos
Informe del Tiempo

          

 

 

           VUELOS DE BAJO NIVEL DESDE SUPERFICIE HASTA 24,000 PIES. 

VALIDO DESDE 201200Z...…………………….…………………HASTA 210000Z
 
SANTO DOMINGO FIR...PORT-AU-PRINCE FIR HISPANIOLA...SCT020-SKC. OCNL 3-5SM BR TIL 13Z. 16Z SCT025 SCT060. LYRS OCNL BKN TOP FL240. WDLY SCT TSRA. OTLK...VFR
SHRA TSRA BECM 03Z VFR.WTRS S OF HISPANIOLA...SCT025 SCT060. ISOL SHRA. OTLK...VFR SHRA.WTRS ELSW...SCT030 SCT070. OTLK...VFR.
 

 

5,000 FT.

10,000 FT.

18,000 FT.

24,000 FT.

MDSD

1915KT+18ºC

2110KT+09ºC

    1805KT-07ºC

1710KT-19ºC

MTPP

1915KT+18ºC

2110KT+09ºC

    1805KT-07ºC

1710KT-19ºC

TJSJ

2315KT+17ºC

1910KT+09ºC

     1405KT-08ºC

1115KT-18ºC

 

 

 

 

 


TAF 

TAF MDPP 201000Z 2012/2112 00000KT 9999 FEW018 BECMG 2014/2016 09010KT PROB40 TEMPO 2018/2100 6000 -TSRA FEW016CB BKN016 BECMG 2101/2103 00000KT FEW018= 

TAF MDST 201000Z 2012/2112 09005KT 9999 SCT018 BKN300 TEMPO 2011/2013 5000 BR= 

TAF MDPC 201000Z 2012/2112 12005KT 9999 SCT020 BKN070 PROB30 2016/2022 7000 –TSRA FEW014CB SCT016 BKN070= 

TAF MDBH 201000Z 2012/2112 13010KT 9999 FEW016CB SCT018 SCT300 PROB40 TEMPO 2016/2022 7000 -TSRA FEW014CB BKN016 BKN070= 

TAF MDJB 201000Z 2012/2112 00000KT 9999 FEW018 BECMG 2013/2015 05005KT PROB40 TEMPO 2015/2021 6000 -TSRA FEW014CB BKN016 BKN070= 

TAF MDSD 201000Z 2012/2112 12010KT 9999 SCT018 BKN300 TEMPO 2012/2018 7000 -TSRA FEW014CB BKN016 BKN070 PROB40 TEMPO 2019/2101 6000 -TSRA FEW014CB BKN016 BKN070= 

TAF MDLR 201000Z 2012/2112 00000KT 9999 SCT018 PROB30 2012/2018 8000 -TSRA FEW016CB BKN016 BKN070 BECMG 2013/2015 13010KT= 

TAF MDCY 201000Z 2012/2112 00000KT 9999 FEW018 BECMG 2016/2018 09012KT PROB40 TEMPO 2017/2023 7000 -TSRA FEW016CB BKN018 BKN070= 

KMIA 200827Z 2008/2112 VRB03KT P6SM FEW020 FEW040 FM201500 15006KT P6SM SCT030 SCT050 
FM201800 15010KT P6SM SCT035 FM210100 VRB03KT P6SM SKC
 

KJFK 200831Z 2009/2112 04004KT P6SM BKN200 FM201200 VRB04KT P6SM BKN150 FM201400 17008KT P6SM FEW040 BKN150 FM201800 18011KT P6SM SCT040 BKN120 FM210100 17006KT P6SM -SHRA FEW025 OVC040 
FM210300 14005KT 5SM -SHRA BR BKN025 OVC040 FM210600 09006KT 3SM -RA BR SCT008 OVC015 TEMPO 2106/2109 BKN008FM210900 02007KT 5SM -SHRA BR SCT008 OVC015
 

TJSJ 200523Z 2006/2106 16010G16KT P6SM FEW030 SCT040 SCT100 FM201300 09010KT P6SM VCSH FEW028 SCT050 FM202300 12005KT P6SM VCSH SCT028 SCT060 

MUHA 200500Z 2006/2106 VRB01KT 9000 FEW030 BECMG 2012/2014 18005KT TEMPO 2019/2023 3000 TSRA SCT018CB BKN030 BECMG 2102/2104 VRB03KT 

TAF MUGM 2007/2107 36006KT 9999 FEW030 FEW130 SCT280 QNH2995INS BECMG 2016/2018 15010KT 9999 VCTS FEW030CB SCT100 BKN280 QNH2992INS FM202200 17010KT 9999 VCTS SCT030CB BKN100 BKN280 QNH2989INS FM210100 02005KT 9999 FEW030 SCT280 QNH2993INS T25/2010Z T33/2018Z FN00182 

TAF TNCC 200930Z 2012/2112 12012KT 9999 FEW020 

TAF MKJP 200515Z 2006/2106 32008KT 9999 FEW024 BECMG 2014/2016 14020KT SCT020 FEW022CB 
BECMG 2103/2105 36005KT FEW022

 

 

PREPARADO POR: ADELAIDA PERALTA V. 20 DE JUNIO 2018